Time;durP1;ratioP1;P1;durP2;ratioP2;P2;SDS_P1;SDS_P2;PMS_P1;PMS_P2;Temp;Humidity;BMP_temperature;BMP_pressure;BME280_temperature;BME280_humidity;BME280_pressure;Samples;Min_cycle;Max_cycle;Signal;HPM_P1;HPM_P2
2021/06/17 00:00:35;;;;;;;;;0.00;0.00;;;;;29.80;39.09;100166.75;5128536;27;45325;-60
2021/06/17 00:03:01;;;;;;;;;0.00;0.00;;;;;29.78;38.86;100158.88;5109825;27;45402;-61
2021/06/17 00:05:30;;;;;;;;;0.00;0.00;;;;;29.78;38.91;100161.59;5108651;27;45342;-60
2021/06/17 00:07:56;;;;;;;;;0.00;0.00;;;;;29.76;38.87;100158.38;5108505;27;45334;-60
2021/06/17 00:10:21;;;;;;;;;0.00;0.00;;;;;29.77;39.30;100161.88;5107930;27;46381;-60
2021/06/17 00:12:47;;;;;;;;;0.00;0.00;;;;;29.73;39.38;100160.75;5112258;27;45410;-60
2021/06/17 00:15:13;;;;;;;;;0.00;0.00;;;;;29.73;38.78;100161.56;5128028;27;45273;-60
2021/06/17 00:17:41;;;;;;;;;0.00;0.00;;;;;29.69;39.09;100160.47;5125171;27;45643;-60
2021/06/17 00:20:08;;;;;;;;;0.00;0.00;;;;;29.67;39.28;100162.56;5124344;27;46862;-60
2021/06/17 00:22:33;;;;;;;;;0.00;0.00;;;;;29.68;39.17;100174.22;5125077;27;45405;-60
2021/06/17 00:24:58;;;;;;;;;0.00;0.00;;;;;29.69;39.05;100170.44;5124942;27;45369;-60
2021/06/17 00:27:26;;;;;;;;;0.00;0.00;;;;;29.70;39.76;100164.81;5125195;27;45380;-60
2021/06/17 00:29:51;;;;;;;;;0.00;0.00;;;;;29.70;39.28;100159.41;5124802;27;46001;-60
2021/06/17 00:32:17;;;;;;;;;0.00;0.00;;;;;29.72;39.66;100156.41;5124705;27;45966;-60
2021/06/17 00:34:42;;;;;;;;;0.00;0.00;;;;;29.68;39.21;100153.41;5124128;27;45454;-61
2021/06/17 00:37:07;;;;;;;;;0.00;0.00;;;;;29.72;39.42;100156.41;5125015;27;45487;-60
2021/06/17 00:39:33;;;;;;;;;0.00;0.00;;;;;29.68;39.53;100139.03;5124794;27;46403;-60
2021/06/17 00:41:58;;;;;;;;;0.00;0.00;;;;;29.71;39.07;100142.06;5106233;27;45213;-61
2021/06/17 00:44:24;;;;;;;;;0.00;0.00;;;;;29.73;39.22;100126.38;5124709;27;45224;-61
2021/06/17 00:46:49;;;;;;;;;0.00;0.00;;;;;29.73;39.71;100123.69;5124730;27;45272;-60
2021/06/17 00:49:14;;;;;;;;;0.00;0.00;;;;;29.76;39.55;100117.75;5124428;27;47019;-60
2021/06/17 00:51:40;;;;;;;;;0.00;0.00;;;;;29.76;39.48;100106.09;5124674;27;45337;-59
2021/06/17 00:54:05;;;;;;;;;0.00;0.00;;;;;29.76;39.73;100098.81;5124291;27;45275;-60
2021/06/17 00:56:31;;;;;;;;;0.00;0.00;;;;;29.76;39.23;100079.03;5124735;27;45320;-59
2021/06/17 00:58:57;;;;;;;;;0.00;0.00;;;;;29.77;39.37;100080.69;5124179;27;45414;-60
2021/06/17 01:01:23;;;;;;;;;0.00;0.00;;;;;29.77;39.54;100080.69;5124290;27;45319;-58
2021/06/17 01:03:49;;;;;;;;;0.00;0.00;;;;;29.77;39.63;100088.78;5121830;27;45344;-59
2021/06/17 01:06:14;;;;;;;;;0.00;0.00;;;;;29.73;39.90;100096.63;5113679;27;45328;-60
2021/06/17 01:09:00;;;;;;;;;0.00;0.00;;;;;29.71;39.61;100084.44;5124591;27;45422;-60
2021/06/17 01:11:35;;;;;;;;;0.00;0.00;;;;;29.62;39.76;100073.25;5102536;27;45519;-60
2021/06/17 01:14:32;;;;;;;;;0.00;0.00;;;;;29.55;39.39;100078.09;5110696;27;45311;-60
2021/06/17 01:17:09;;;;;;;;;0.00;0.00;;;;;29.51;39.76;100079.69;5104615;27;45266;-60
2021/06/17 01:19:53;;;;;;;;;0.00;0.00;;;;;29.44;40.11;100075.31;5124276;27;45674;-60
2021/06/17 01:22:44;;;;;;;;;0.00;0.00;;;;;29.41;40.58;100064.19;5103519;27;45334;-60
2021/06/17 01:25:10;;;;;;;;;0.00;0.00;;;;;29.42;40.36;100068.53;5103528;27;45275;-59
2021/06/17 01:27:56;;;;;;;;;0.00;0.00;;;;;29.38;40.30;100075.53;5103528;27;45276;-60
2021/06/17 01:30:25;;;;;;;;;0.00;0.00;;;;;29.34;40.28;100083.34;5111257;27;45311;-59
2021/06/17 01:32:58;;;;;;;;;0.00;0.00;;;;;29.33;40.15;100091.72;5123731;27;45366;-59
2021/06/17 01:35:26;;;;;;;;;0.00;0.00;;;;;29.31;40.54;100092.00;5123958;27;45204;-60
2021/06/17 01:37:57;;;;;;;;;0.00;0.00;;;;;29.27;40.83;100088.16;5123845;27;45366;-60
2021/06/17 01:40:26;;;;;;;;;0.00;0.00;;;;;29.23;41.38;100087.88;5123970;27;46458;-60
2021/06/17 01:42:52;;;;;;;;;0.00;0.00;;;;;29.22;40.78;100102.47;5123490;27;45241;-60
2021/06/17 01:45:18;;;;;;;;;1.00;0.00;;;;;29.18;41.02;100095.94;5124006;27;45401;-59
2021/06/17 01:47:46;;;;;;;;;0.00;0.00;;;;;29.13;40.86;100128.34;5123598;27;45258;-60
2021/06/17 01:50:13;;;;;;;;;0.00;0.00;;;;;29.12;41.48;100204.31;5123525;27;46420;-59
2021/06/17 01:52:40;;;;;;;;;0.00;0.00;;;;;29.06;42.04;100357.53;5123369;27;45171;-59
2021/06/17 01:55:06;;;;;;;;;0.00;0.00;;;;;28.80;45.65;100356.38;5123247;27;45334;-59
2021/06/17 01:57:33;;;;;;;;;3.00;3.00;;;;;28.27;48.40;100355.81;5123418;27;45344;-60
2021/06/17 02:00:00;;;;;;;;;0.00;0.00;;;;;27.57;51.03;100371.31;5123341;27;46543;-60
2021/06/17 02:02:28;;;;;;;;;3.00;0.00;;;;;26.97;52.24;100385.97;5123039;27;45277;-60
2021/06/17 02:04:54;;;;;;;;;0.00;0.00;;;;;26.50;53.96;100385.97;5111449;27;45216;-59
2021/06/17 02:07:22;;;;;;;;;0.00;0.00;;;;;26.06;55.59;100354.97;5121944;27;45320;-60
2021/06/17 02:09:50;;;;;;;;;0.00;0.00;;;;;25.61;56.00;100317.75;5122792;27;47264;-60
2021/06/17 02:12:16;;;;;;;;;0.00;0.00;;;;;25.37;56.83;100310.38;5117208;27;45364;-60
2021/06/17 02:14:43;;;;;;;;;0.00;0.00;;;;;25.26;57.27;100294.22;5115274;27;45285;-59
2021/06/17 02:17:10;;;;;;;;;0.00;0.00;;;;;25.24;56.29;100280.19;5123161;27;45155;-60
2021/06/17 02:19:37;;;;;;;;;0.00;0.00;;;;;25.17;66.11;100275.69;5122861;27;45720;-59
2021/06/17 02:22:04;;;;;;;;;0.00;0.00;;;;;25.25;56.79;100279.97;5122745;27;45299;-59
2021/06/17 02:24:32;;;;;;;;;0.00;0.00;;;;;25.28;56.48;100294.81;5123159;27;45296;-59
2021/06/17 02:27:06;;;;;;;;;0.00;0.00;;;;;25.31;56.75;100292.50;5123020;27;45179;-59
2021/06/17 02:29:37;;;;;;;;;0.00;0.00;;;;;25.37;56.47;100318.47;5122211;27;45632;-60
2021/06/17 02:32:05;;;;;;;;;0.00;0.00;;;;;25.41;56.26;100414.81;5122525;27;45514;-59
2021/06/17 02:34:31;;;;;;;;;0.00;0.00;;;;;25.43;55.76;100521.06;5122856;27;45314;-59
2021/06/17 02:36:57;;;;;;;;;0.00;0.00;;;;;25.35;59.02;100557.09;5123060;27;45273;-59
2021/06/17 02:39:27;;;;;;;;;0.00;0.00;;;;;24.98;72.12;100589.22;5122210;27;47256;-60
2021/06/17 02:41:58;;;;;;;;;0.00;0.00;;;;;24.39;71.76;100558.19;5122447;27;45404;-59
2021/06/17 02:44:27;;;;;;;;;0.00;0.00;;;;;23.95;73.51;100544.53;5122836;27;45324;-59
2021/06/17 02:46:53;;;;;;;;;0.00;0.00;;;;;23.68;66.96;100530.34;5122471;27;45363;-58
2021/06/17 02:49:19;;;;;;;;;0.00;0.00;;;;;23.48;66.36;100481.34;5122666;27;46619;-59
2021/06/17 02:51:45;;;;;;;;;0.00;0.00;;;;;23.42;65.86;100468.78;5116518;27;45198;-59
2021/06/17 02:54:10;;;;;;;;;0.00;0.00;;;;;23.40;65.52;100457.44;5109817;27;45267;-60
2021/06/17 02:57:00;;;;;;;;;0.00;0.00;;;;;23.42;65.01;100444.66;5122616;27;45247;-59
2021/06/17 02:59:43;;;;;;;;;0.00;0.00;;;;;23.45;64.24;100422.78;5115578;27;46413;-59
2021/06/17 03:02:15;;;;;;;;;0.00;0.00;;;;;23.51;62.89;100419.25;5101915;27;45231;-59
2021/06/17 03:04:49;;;;;;;;;0.00;0.00;;;;;23.59;63.48;100412.84;5109639;27;45214;-59
2021/06/17 03:07:23;;;;;;;;;0.00;0.00;;;;;23.69;64.34;100413.19;5120300;27;45621;-60
2021/06/17 03:09:54;;;;;;;;;0.00;0.00;;;;;23.77;62.47;100383.50;5122377;27;45487;-59
2021/06/17 03:12:23;;;;;;;;;0.00;0.00;;;;;23.89;62.61;100386.34;5111993;27;45435;-58
2021/06/17 03:14:50;;;;;;;;;0.00;0.00;;;;;23.98;62.64;100363.56;5115809;27;45328;-59
2021/06/17 03:17:19;;;;;;;;;0.00;0.00;;;;;24.05;63.30;100363.53;5122425;27;45393;-59
2021/06/17 03:19:48;;;;;;;;;0.00;0.00;;;;;24.07;62.45;100351.53;5121815;27;46340;-59
2021/06/17 03:22:14;;;;;;;;;0.00;0.00;;;;;24.08;61.29;100361.25;5121967;27;45338;-60
2021/06/17 03:24:43;;;;;;;;;0.00;0.00;;;;;24.13;61.33;100355.22;5122252;27;45251;-60
2021/06/17 03:27:08;;;;;;;;;0.00;0.00;;;;;24.21;60.85;100354.97;5115471;27;45183;-59
2021/06/17 03:29:46;;;;;;;;;0.00;0.00;;;;;24.29;60.61;100356.53;5116980;27;46331;-59
2021/06/17 03:32:13;;;;;;;;;0.00;0.00;;;;;24.36;60.09;100362.66;5121299;27;45377;-59
2021/06/17 03:34:41;;;;;;;;;0.00;0.00;;;;;24.44;59.73;100365.06;5107377;27;45349;-58
2021/06/17 03:37:10;;;;;;;;;0.00;0.00;;;;;24.53;59.54;100342.28;5103413;27;45268;-59
2021/06/17 03:39:37;;;;;;;;;0.00;0.00;;;;;24.61;59.54;100310.84;5119476;27;46469;-59
2021/06/17 03:42:04;;;;;;;;;0.00;0.00;;;;;24.62;59.55;100259.63;5121379;27;45323;-58
2021/06/17 03:44:30;;;;;;;;;0.00;0.00;;;;;24.64;59.26;100267.44;5121734;27;45307;-58
2021/06/17 03:46:56;;;;;;;;;0.00;0.00;;;;;24.68;59.20;100244.47;5121845;27;45389;-59
2021/06/17 03:49:27;;;;;;;;;0.00;0.00;;;;;24.65;58.95;100245.75;5108927;27;46632;-60
2021/06/17 03:51:53;;;;;;;;;0.00;0.00;;;;;24.61;59.47;100257.16;5119711;27;45427;-60
2021/06/17 03:54:23;;;;;;;;;0.00;0.00;;;;;24.62;59.21;100273.06;5123382;27;45223;-59
2021/06/17 03:57:03;;;;;;;;;0.00;0.00;;;;;24.68;59.21;100299.00;5125776;27;45234;-59
2021/06/17 03:59:35;;;;;;;;;0.00;0.00;;;;;24.70;58.37;100306.81;5123842;27;46381;-60
2021/06/17 04:02:01;;;;;;;;;0.00;0.00;;;;;24.70;58.70;100317.56;5122607;27;45428;-59
2021/06/17 04:04:27;;;;;;;;;0.00;0.00;;;;;24.67;58.89;100308.09;5109611;27;45473;-59
2021/06/17 04:06:55;;;;;;;;;0.00;0.00;;;;;24.70;58.93;100320.25;5102154;27;45410;-59
2021/06/17 04:09:28;;;;;;;;;0.00;0.00;;;;;24.72;58.16;100318.97;5117782;27;45368;-59
2021/06/17 04:11:59;;;;;;;;;0.00;0.00;;;;;24.72;58.88;100324.34;5120848;27;45319;-59
2021/06/17 04:14:26;;;;;;;;;0.00;0.00;;;;;24.72;58.61;100323.53;5125193;27;45546;-59
2021/06/17 04:16:52;;;;;;;;;0.00;0.00;;;;;24.71;58.82;100324.59;5088798;27;45314;-59
2021/06/17 04:19:22;;;;;;;;;0.00;0.00;;;;;24.69;58.73;100318.63;5116718;27;45751;-58
2021/06/17 04:21:51;;;;;;;;;0.00;0.00;;;;;24.68;58.61;100308.91;5124505;27;45384;-60
2021/06/17 04:24:19;;;;;;;;;0.00;0.00;;;;;24.64;59.78;100295.09;5117850;27;45441;-59
2021/06/17 04:26:45;;;;;;;;;0.00;0.00;;;;;24.65;58.86;100279.84;5118890;27;45349;-59
2021/06/17 04:29:14;;;;;;;;;0.00;0.00;;;;;24.61;58.52;100274.09;5124824;27;46248;-59
2021/06/17 04:31:40;;;;;;;;;0.00;0.00;;;;;24.54;58.83;100279.53;5124268;27;45291;-59
2021/06/17 04:34:07;;;;;;;;;0.00;0.00;;;;;24.49;59.58;100297.31;5124657;27;45417;-59
2021/06/17 04:36:32;;;;;;;;;0.00;0.00;;;;;24.51;58.48;100306.81;5117113;27;45535;-59
2021/06/17 04:38:58;;;;;;;;;0.25;0.00;;;;;24.55;58.66;100312.56;5094857;27;47319;-60
2021/06/17 04:41:23;;;;;;;;;0.00;0.00;;;;;24.48;58.87;100301.88;5118241;27;45271;-59
2021/06/17 04:43:49;;;;;;;;;0.00;0.00;;;;;24.42;59.37;100308.09;5124625;27;45317;-60
2021/06/17 04:46:15;;;;;;;;;0.00;0.00;;;;;24.38;59.95;100312.25;5105831;27;45216;-59
2021/06/17 04:48:42;;;;;;;;;0.00;0.00;;;;;24.33;59.37;100301.38;5120261;27;46987;-60
2021/06/17 04:51:10;;;;;;;;;0.00;0.00;;;;;24.31;59.93;100296.22;5124228;27;45324;-59
2021/06/17 04:53:36;;;;;;;;;0.00;0.00;;;;;24.33;59.52;100315.59;5124381;27;45456;-59
2021/06/17 04:56:02;;;;;;;;;0.00;0.00;;;;;24.34;59.41;100311.91;5124231;27;45487;-60
2021/06/17 04:58:27;;;;;;;;;3.00;0.00;;;;;24.32;59.45;100292.50;5117662;27;45602;-60
2021/06/17 05:00:52;;;;;;;;;0.00;0.00;;;;;24.33;59.80;100304.88;5118423;27;45354;-59
2021/06/17 05:03:19;;;;;;;;;0.00;0.00;;;;;24.36;59.32;100295.56;5123594;27;45239;-59
2021/06/17 05:05:47;;;;;;;;;0.00;0.00;;;;;24.33;60.34;100294.13;5109595;27;45472;-58
2021/06/17 05:10:50;;;;;;;;;0.00;0.00;;;;;24.47;58.84;100316.34;5121579;27;45354;-59
2021/06/17 05:13:35;;;;;;;;;0.00;0.00;;;;;24.58;59.31;100319.34;5109249;27;45405;-59
2021/06/17 05:16:02;;;;;;;;;0.00;0.00;;;;;24.65;58.58;100320.13;5123571;27;45312;-59
2021/06/17 05:18:28;;;;;;;;;0.00;0.00;;;;;24.66;58.87;100306.44;5122102;27;45501;-60
2021/06/17 05:20:56;;;;;;;;;0.00;0.00;;;;;24.70;59.40;100306.81;5118538;27;45519;-59
2021/06/17 05:23:22;;;;;;;;;0.00;0.00;;;;;24.73;58.87;100298.31;5115662;27;45243;-59
2021/06/17 05:25:53;;;;;;;;;0.00;0.00;;;;;24.79;59.05;100312.72;5123865;27;45270;-60
2021/06/17 05:28:22;;;;;;;;;0.00;0.00;;;;;24.79;58.57;100310.03;5121893;27;46699;-60
2021/06/17 05:30:48;;;;;;;;;0.00;0.00;;;;;24.81;58.91;100314.13;5103593;27;45239;-61
2021/06/17 05:33:13;;;;;;;;;0.00;0.00;;;;;24.85;58.87;100311.84;5113797;27;45455;-60
2021/06/17 05:35:40;;;;;;;;;0.00;0.00;;;;;24.92;58.61;100315.25;5118577;27;45398;-60
2021/06/17 05:38:05;;;;;;;;;0.00;0.00;;;;;25.08;58.09;100317.34;5115818;27;45402;-60
2021/06/17 05:40:31;;;;;;;;;0.00;0.00;;;;;25.26;58.31;100334.53;5123528;27;45559;-60
2021/06/17 05:42:56;;;;;;;;;0.00;0.00;;;;;25.41;57.08;100342.22;5123730;27;45353;-62
2021/06/17 05:45:22;;;;;;;;;0.00;0.00;;;;;25.46;57.18;100329.72;5123789;27;45402;-60
2021/06/17 05:47:48;;;;;;;;;0.00;0.00;;;;;25.50;57.19;100341.66;5121462;27;45455;-60
2021/06/17 05:50:13;;;;;;;;;0.00;0.00;;;;;25.54;56.74;100345.53;5118622;27;45257;-62
2021/06/17 05:52:39;;;;;;;;;0.00;0.00;;;;;25.60;57.00;100349.19;5116831;27;45353;-60
2021/06/17 05:55:05;;;;;;;;;0.00;0.00;;;;;25.69;56.65;100360.47;5116985;27;45304;-61
2021/06/17 05:57:30;;;;;;;;;0.00;0.00;;;;;25.85;56.36;100359.78;5119088;27;46279;-62
2021/06/17 05:59:56;;;;;;;;;0.00;0.00;;;;;25.98;56.15;100366.88;5102795;27;45270;-62
2021/06/17 06:02:23;;;;;;;;;1.00;1.00;;;;;26.08;55.49;100360.94;5102240;27;45161;-59
2021/06/17 06:04:50;;;;;;;;;0.00;0.00;;;;;26.14;55.18;100363.53;5112562;27;45258;-61
2021/06/17 06:07:16;;;;;;;;;0.00;0.00;;;;;26.22;55.47;100369.63;5102637;27;45322;-59
2021/06/17 06:09:41;;;;;;;;;0.00;0.00;;;;;26.28;54.89;100382.16;5102364;27;45392;-60
2021/06/17 06:12:10;;;;;;;;;0.00;0.00;;;;;26.40;54.91;100375.75;5113487;27;45341;-60
2021/06/17 06:14:35;;;;;;;;;0.00;0.00;;;;;26.64;54.54;100383.06;5106459;27;45349;-60
2021/06/17 06:17:01;;;;;;;;;0.00;0.00;;;;;26.99;53.07;100397.31;5120463;27;46338;-59
2021/06/17 06:19:26;;;;;;;;;0.00;0.00;;;;;27.33;52.68;100397.53;5122217;27;45289;-59
2021/06/17 06:21:52;;;;;;;;;0.00;0.00;;;;;27.52;52.02;100389.28;5122426;27;45305;-60
2021/06/17 06:24:18;;;;;;;;;0.00;0.00;;;;;27.56;51.87;100414.69;5122267;27;45221;-60
2021/06/17 06:26:44;;;;;;;;;0.00;0.00;;;;;27.47;52.27;100406.16;5120397;27;47000;-60
2021/06/17 06:29:10;;;;;;;;;0.00;0.00;;;;;27.41;51.96;100409.84;5114852;27;45342;-59
2021/06/17 06:31:35;;;;;;;;;0.00;0.00;;;;;27.31;52.06;100409.63;5108389;27;45561;-60
2021/06/17 06:34:01;;;;;;;;;0.00;0.00;;;;;27.41;52.30;100426.03;5108682;27;45340;-60
2021/06/17 06:36:27;;;;;;;;;0.00;0.00;;;;;27.46;52.56;100439.59;5119210;27;45502;-59
2021/06/17 06:38:52;;;;;;;;;0.00;0.00;;;;;27.51;52.30;100439.69;5110316;27;45328;-60
2021/06/17 06:41:17;;;;;;;;;0.00;0.00;;;;;27.74;52.03;100435.31;5115331;27;45407;-59
2021/06/17 06:43:43;;;;;;;;;0.00;0.00;;;;;28.21;51.34;100440.53;5108749;27;45293;-60
2021/06/17 06:46:09;;;;;;;;;0.00;0.00;;;;;28.66;50.00;100433.44;5114642;27;45268;-60
2021/06/17 06:48:35;;;;;;;;;0.00;0.00;;;;;28.80;49.54;100440.97;5108399;27;45258;-59
2021/06/17 06:51:00;;;;;;;;;0.75;0.75;;;;;28.75;49.17;100453.59;5121950;27;45437;-62
2021/06/17 06:53:25;;;;;;;;;0.00;0.00;;;;;28.57;49.29;100465.44;5120735;27;45407;-60
2021/06/17 06:55:51;;;;;;;;;0.00;0.00;;;;;28.35;49.73;100465.31;5120193;27;46273;-60
2021/06/17 06:58:16;;;;;;;;;0.00;0.00;;;;;28.10;49.94;100458.44;5105414;27;45486;-60
2021/06/17 07:00:44;;;;;;;;;0.00;0.00;;;;;28.05;50.58;100461.00;5121588;27;45278;-60
2021/06/17 07:03:11;;;;;;;;;0.00;0.00;;;;;28.05;49.61;100462.91;5119286;27;45367;-60
2021/06/17 07:05:36;;;;;;;;;0.00;0.00;;;;;28.02;49.64;100472.31;5107560;27;46276;-60
2021/06/17 07:08:08;;;;;;;;;0.00;0.00;;;;;27.97;49.99;100469.50;5110130;27;45432;-62
2021/06/17 07:10:33;;;;;;;;;3.00;0.00;;;;;27.89;50.36;100462.63;5107335;27;45243;-64
2021/06/17 07:12:58;;;;;;;;;0.00;0.00;;;;;27.90;49.92;100471.53;5108389;27;45374;-63
2021/06/17 07:15:24;;;;;;;;;0.00;0.00;;;;;27.97;49.53;100469.50;5112134;27;45629;-65
2021/06/17 07:17:49;;;;;;;;;1.00;0.00;;;;;28.02;49.11;100475.81;5105555;27;45533;-63
2021/06/17 07:20:14;;;;;;;;;0.00;0.00;;;;;28.07;48.50;100476.97;5121403;27;45798;-62
2021/06/17 07:22:40;;;;;;;;;1.00;1.00;;;;;28.18;48.43;100476.91;5107203;27;45567;-63
2021/06/17 07:25:06;;;;;;;;;0.00;0.00;;;;;28.27;48.02;100474.63;5100512;27;46207;-64
2021/06/17 07:27:32;;;;;;;;;3.25;0.25;;;;;28.41;47.97;100481.38;5104374;27;45290;-62
2021/06/17 07:29:57;;;;;;;;;1.00;0.00;;;;;28.45;47.65;100476.31;5125110;27;45494;-62
2021/06/17 07:32:22;;;;;;;;;0.00;0.00;;;;;28.57;47.65;100492.47;5120267;27;45550;-63
2021/06/17 07:34:48;;;;;;;;;0.00;0.00;;;;;28.59;47.48;100496.56;5110323;27;45402;-62
2021/06/17 07:37:14;;;;;;;;;0.00;0.00;;;;;28.69;47.00;100504.03;5104804;27;45471;-64
2021/06/17 07:39:40;;;;;;;;;0.00;0.00;;;;;28.73;46.26;100509.78;5104426;27;45336;-61
2021/06/17 07:42:05;;;;;;;;;1.00;0.00;;;;;28.74;46.42;100495.19;5109845;27;45377;-61
2021/06/17 07:44:31;;;;;;;;;0.00;0.00;;;;;28.72;45.98;100498.13;5113081;27;46245;-62
2021/06/17 07:46:56;;;;;;;;;0.00;0.00;;;;;28.72;46.27;100502.72;5121896;27;45691;-63
2021/06/17 07:49:22;;;;;;;;;0.00;0.00;;;;;28.79;46.61;100504.22;5124253;27;45286;-63
2021/06/17 07:51:47;;;;;;;;;0.00;0.00;;;;;28.89;45.89;100506.25;5118352;27;45249;-64
2021/06/17 07:54:12;;;;;;;;;0.00;0.00;;;;;29.11;44.86;100508.22;5086981;27;45506;-60
2021/06/17 07:56:38;;;;;;;;;0.00;0.00;;;;;29.19;44.85;100510.50;5090103;27;45450;-62
2021/06/17 07:59:03;;;;;;;;;0.00;0.00;;;;;29.54;43.85;100504.75;5091062;27;45409;-61
2021/06/17 08:01:29;;;;;;;;;0.00;0.00;;;;;29.94;43.19;100502.84;5103927;27;45426;-62
2021/06/17 08:03:54;;;;;;;;;0.00;0.00;;;;;30.20;43.03;100504.75;5098608;27;47319;-61
2021/06/17 08:06:19;;;;;;;;;0.75;0.00;;;;;30.45;42.08;100479.00;5101187;27;45460;-61
2021/06/17 08:08:45;;;;;;;;;0.00;0.00;;;;;30.74;41.85;100501.22;5085130;27;45724;-61
2021/06/17 08:11:11;;;;;;;;;0.00;0.00;;;;;31.10;41.11;100506.09;5087427;27;45614;-61
2021/06/17 08:13:37;;;;;;;;;0.00;0.00;;;;;31.47;39.29;100506.06;5100978;27;45336;-63
2021/06/17 08:16:03;;;;;;;;;0.00;0.00;;;;;31.70;40.16;100507.50;5091753;27;45302;-61
2021/06/17 08:18:28;;;;;;;;;0.00;0.00;;;;;32.17;38.23;100500.34;5074513;28;45374;-63
2021/06/17 08:20:54;;;;;;;;;0.00;0.00;;;;;32.61;37.24;100506.13;5096406;27;45251;-62
2021/06/17 08:23:21;;;;;;;;;0.00;0.00;;;;;32.86;36.62;100515.38;5084796;27;46390;-64
2021/06/17 08:25:50;;;;;;;;;0.00;0.00;;;;;33.19;36.35;100505.00;5101146;27;45312;-63
2021/06/17 08:28:15;;;;;;;;;0.00;0.00;;;;;33.35;35.99;100508.50;5092343;27;45364;-63
2021/06/17 08:30:40;;;;;;;;;0.00;0.00;;;;;33.63;35.22;100510.63;5095546;27;45461;-64
2021/06/17 08:33:06;;;;;;;;;0.00;0.00;;;;;34.06;34.72;100507.38;5092815;27;45319;-64
2021/06/17 08:35:32;;;;;;;;;0.00;0.00;;;;;34.50;33.47;100521.03;5089166;27;45303;-63
2021/06/17 08:37:58;;;;;;;;;0.00;0.00;;;;;34.69;31.99;100523.09;5097817;27;45405;-65
2021/06/17 08:40:25;;;;;;;;;0.00;0.00;;;;;34.53;32.93;100520.44;5099590;27;45496;-63
2021/06/17 08:42:51;;;;;;;;;0.00;0.00;;;;;34.48;32.78;100528.66;5089937;27;47246;-63
2021/06/17 08:45:16;;;;;;;;;0.00;0.00;;;;;34.52;33.04;100516.09;5093920;27;45240;-63
2021/06/17 08:47:42;;;;;;;;;0.50;0.50;;;;;34.53;32.45;100536.00;5101820;27;45209;-64
2021/06/17 08:50:11;;;;;;;;;0.00;0.00;;;;;34.28;32.09;100537.00;5097756;27;45241;-62
2021/06/17 08:52:40;;;;;;;;;0.00;0.00;;;;;34.10;32.68;100544.72;5097699;27;46375;-66
2021/06/17 08:55:22;;;;;;;;;0.00;0.00;;;;;34.07;32.80;100531.63;5116845;27;45435;-64
2021/06/17 08:57:51;;;;;;;;;0.00;0.00;;;;;33.89;33.11;100532.28;5109820;27;45353;-64
2021/06/17 09:00:16;;;;;;;;;0.00;0.00;;;;;33.77;33.10;100529.06;5107306;27;45381;-63
2021/06/17 09:02:56;;;;;;;;;0.00;0.00;;;;;33.37;34.12;100536.25;5104155;27;45456;-62
2021/06/17 09:05:22;;;;;;;;;0.00;0.00;;;;;33.27;33.91;100537.91;5123631;27;45270;-63
2021/06/17 09:07:49;;;;;;;;;0.00;0.00;;;;;33.27;33.84;100540.63;5120658;27;45346;-62
2021/06/17 09:10:15;;;;;;;;;1.00;1.00;;;;;33.48;33.72;100533.25;5116621;27;45507;-62
2021/06/17 09:12:50;;;;;;;;;0.00;0.00;;;;;34.07;32.81;100539.81;5109769;27;45320;-64
2021/06/17 09:15:33;;;;;;;;;0.00;0.00;;;;;33.93;33.43;100536.06;5113005;27;45265;-64
2021/06/17 09:18:18;;;;;;;;;0.00;0.00;;;;;33.91;32.97;100544.53;5122769;27;45514;-63
2021/06/17 09:21:07;;;;;;;;;0.00;0.00;;;;;33.42;33.99;100542.50;5123222;27;45563;-64
2021/06/17 09:23:44;;;;;;;;;0.00;0.00;;;;;34.45;32.40;100542.03;5113262;27;45491;-64
2021/06/17 09:26:12;;;;;;;;;0.00;0.00;;;;;35.05;32.31;100541.84;5123037;27;45443;-64
2021/06/17 09:28:44;;;;;;;;;0.00;0.00;;;;;35.74;31.05;100548.78;5115804;27;45272;-66
2021/06/17 09:31:19;;;;;;;;;0.00;0.00;;;;;36.25;30.26;100549.25;5113391;27;45579;-64
2021/06/17 09:33:46;;;;;;;;;0.00;0.00;;;;;36.05;29.44;100544.81;5102761;27;45448;-63
2021/06/17 09:36:11;;;;;;;;;0.00;0.00;;;;;36.31;30.26;100543.41;5107745;27;45352;-63
2021/06/17 09:38:47;;;;;;;;;3.00;0.00;;;;;36.99;29.75;100533.00;5122944;27;45557;-63
2021/06/17 09:41:28;;;;;;;;;0.00;0.00;;;;;37.86;28.93;100531.31;5116873;27;47010;-62
2021/06/17 09:43:53;;;;;;;;;0.00;0.00;;;;;37.43;28.27;100533.56;5116031;27;45588;-63
2021/06/17 09:46:19;;;;;;;;;0.00;0.00;;;;;36.61;29.13;100532.28;5120600;27;45454;-62
2021/06/17 09:48:50;;;;;;;;;0.00;0.00;;;;;36.29;29.77;100542.06;5108875;27;45458;-63
2021/06/17 09:51:44;;;;;;;;;0.00;0.00;;;;;36.82;29.85;100552.72;5102908;27;45399;-62
2021/06/17 09:54:09;;;;;;;;;0.75;0.75;;;;;37.70;28.96;100551.94;5106655;27;46499;-62
2021/06/17 09:56:36;;;;;;;;;1.00;0.00;;;;;37.85;27.74;100553.56;5113758;27;45262;-61
2021/06/17 09:59:03;;;;;;;;;0.00;0.00;;;;;38.08;26.78;100548.94;5114868;27;45232;-61
2021/06/17 10:01:41;;;;;;;;;0.50;0.00;;;;;38.39;26.58;100565.53;5110761;27;45440;-60
2021/06/17 10:04:12;;;;;;;;;0.00;0.00;;;;;37.50;26.88;100559.44;5106609;27;46329;-61
2021/06/17 10:06:40;;;;;;;;;0.00;0.00;;;;;37.47;27.57;100549.06;5099193;27;45328;-61
2021/06/17 10:09:11;;;;;;;;;0.00;0.00;;;;;38.35;26.83;100557.09;5122427;27;45356;-62
2021/06/17 10:11:38;;;;;;;;;0.00;0.00;;;;;38.17;26.12;100549.88;5120845;27;45532;-60
2021/06/17 10:14:05;;;;;;;;;0.00;0.00;;;;;39.84;25.01;100546.94;5110014;27;46520;-62
2021/06/17 10:16:32;;;;;;;;;0.00;0.00;;;;;41.93;23.68;100551.94;5121805;27;46575;-61
2021/06/17 10:18:58;;;;;;;;;0.00;0.00;;;;;42.96;21.75;100546.66;5122537;27;45404;-61
2021/06/17 10:21:24;;;;;;;;;0.00;0.00;;;;;43.62;21.50;100550.38;5108301;27;45541;-61
2021/06/17 10:23:50;;;;;;;;;0.00;0.00;;;;;43.29;20.97;100548.56;5117939;27;46531;-61
2021/06/17 10:26:21;;;;;;;;;0.00;0.00;;;;;42.84;20.99;100543.06;5109924;27;45299;-64
2021/06/17 10:28:52;;;;;;;;;0.00;0.00;;;;;42.67;21.20;100542.06;5109455;27;45439;-66
2021/06/17 10:31:39;;;;;;;;;0.00;0.00;;;;;43.11;21.58;100542.38;5112568;27;45334;-61
2021/06/17 10:34:23;;;;;;;;;0.00;0.00;;;;;43.69;20.74;100544.28;5121486;27;46334;-62
2021/06/17 10:37:19;;;;;;;;;0.00;0.00;;;;;43.81;21.07;100552.56;5110023;27;45342;-62
2021/06/17 10:39:57;;;;;;;;;0.00;0.00;;;;;43.71;21.08;100542.75;5109734;27;45822;-63
2021/06/17 10:42:25;;;;;;;;;0.00;0.00;;;;;43.05;20.79;100534.69;5103811;27;45716;-61
2021/06/17 10:44:58;;;;;;;;;0.00;0.00;;;;;42.71;20.99;100534.72;5111092;27;46334;-62
2021/06/17 10:47:43;;;;;;;;;0.00;0.00;;;;;42.47;20.53;100534.66;5111711;27;45357;-62
2021/06/17 10:50:09;;;;;;;;;0.00;0.00;;;;;42.40;21.35;100536.00;5102167;27;45328;-62
2021/06/17 10:52:37;;;;;;;;;0.00;0.00;;;;;42.37;20.73;100544.94;5120529;27;45301;-63
2021/06/17 10:55:08;;;;;;;;;0.00;0.00;;;;;42.63;20.50;100545.88;5116954;27;46429;-61
2021/06/17 10:57:52;;;;;;;;;0.00;0.00;;;;;43.12;19.92;100530.19;5114007;27;45568;-62
2021/06/17 11:00:24;;;;;;;;;0.00;0.00;;;;;42.55;19.50;100534.59;5110357;27;45361;-61
2021/06/17 11:02:56;;;;;;;;;0.00;0.00;;;;;42.46;20.42;100539.34;5120040;27;45619;-62
2021/06/17 11:05:51;;;;;;;;;0.00;0.00;;;;;43.19;20.29;100537.91;5102463;27;47438;-61
2021/06/17 11:08:23;;;;;;;;;0.00;0.00;;;;;45.68;17.69;100540.88;5117001;27;45409;-62
2021/06/17 11:10:49;;;;;;;;;0.00;0.00;;;;;47.16;16.75;100540.59;5111524;27;45431;-61
2021/06/17 11:13:38;;;;;;;;;0.00;0.00;;;;;47.49;16.19;100543.84;5114816;27;45366;-62
2021/06/17 11:16:12;;;;;;;;;0.00;0.00;;;;;47.50;16.10;100535.16;5123448;27;46064;-63
2021/06/17 11:18:41;;;;;;;;;0.00;0.00;;;;;47.99;15.75;100528.66;5105317;27;45706;-62
2021/06/17 11:21:27;;;;;;;;;0.00;0.00;;;;;49.10;15.23;100533.75;5118488;27;45488;-62
2021/06/17 11:23:59;;;;;;;;;0.00;0.00;;;;;50.05;14.01;100531.94;5101636;27;45392;-62
2021/06/17 11:26:40;;;;;;;;;0.00;0.00;;;;;49.32;14.19;100524.34;5112107;27;45652;-62
2021/06/17 11:29:18;;;;;;;;;0.00;0.00;;;;;49.11;14.60;100524.22;5111640;27;45316;-62
2021/06/17 11:31:48;;;;;;;;;0.00;0.00;;;;;49.09;14.81;100526.59;5102495;27;45357;-62
2021/06/17 11:34:28;;;;;;;;;0.00;0.00;;;;;47.90;15.56;100528.16;5085749;27;45366;-63